UAL1508 KBUR-KSFO
Flight info
| Callsign | UAL1508 |
|---|---|
| Flight time | 0h 51m |
| Altitude | 32000 |
| Route | OROSZ2 COREZ MAKRS SERFR SERFR4 |
| Aircraft | A21N/M-SDE2E3FGHIJ1RWXY/LB1 |
Departure
| Time | 2026-05-05 07:31 |
|---|---|
| Airport | Hollywood Burbank/Bob Hope Airport (KBUR) |
Arrival
| Time | 2026-05-05 08:22 |
|---|---|
| Airport | San Francisco International Airport (KSFO) |
| Time | Latitude | Longitude | Altitude | Speed | Heading |
|---|---|---|---|---|---|
| 2026-05-05 07:07 | 34.19541 | -118.35487 | 699 ft | 0 kts | 62° |
| 2026-05-05 07:19 | 34.19537 | -118.35497 | 691 ft | 3 kts | 86° |
| 2026-05-05 07:20 | 34.19539 | -118.35506 | 690 ft | 3 kts | 149° |
| 2026-05-05 07:20 | 34.19556 | -118.35518 | 688 ft | 3 kts | 144° |
| 2026-05-05 07:20 | 34.19569 | -118.35530 | 697 ft | 4 kts | 151° |
| 2026-05-05 07:20 | 34.19580 | -118.35535 | 694 ft | 4 kts | 176° |
| 2026-05-05 07:21 | 34.19600 | -118.35536 | 692 ft | 4 kts | 171° |
| 2026-05-05 07:21 | 34.19619 | -118.35541 | 693 ft | 4 kts | 167° |
| 2026-05-05 07:21 | 34.19639 | -118.35546 | 690 ft | 5 kts | 167° |
| 2026-05-05 07:21 | 34.19659 | -118.35552 | 694 ft | 5 kts | 169° |
| 2026-05-05 07:22 | 34.19679 | -118.35557 | 693 ft | 6 kts | 165° |
| 2026-05-05 07:22 | 34.19697 | -118.35564 | 698 ft | 5 kts | 148° |
| 2026-05-05 07:22 | 34.19704 | -118.35565 | 695 ft | 5 kts | 184° |
| 2026-05-05 07:22 | 34.19697 | -118.35572 | 690 ft | 5 kts | 222° |
| 2026-05-05 07:23 | 34.19711 | -118.35559 | 691 ft | 5 kts | 221° |
| 2026-05-05 07:23 | 34.19722 | -118.35542 | 693 ft | 4 kts | 256° |
| 2026-05-05 07:23 | 34.19724 | -118.35518 | 693 ft | 4 kts | 274° |
| 2026-05-05 07:23 | 34.19722 | -118.35494 | 694 ft | 3 kts | 270° |
| 2026-05-05 07:24 | 34.19722 | -118.35469 | 694 ft | 3 kts | 270° |
| 2026-05-05 07:24 | 34.19722 | -118.35445 | 694 ft | 3 kts | 271° |
| 2026-05-05 07:24 | 34.19722 | -118.35434 | 694 ft | 2 kts | 271° |
| 2026-05-05 07:25 | 34.19722 | -118.35439 | 695 ft | 2 kts | 271° |
| 2026-05-05 07:26 | 34.19728 | -118.35469 | 694 ft | 5 kts | 300° |
| 2026-05-05 07:26 | 34.19758 | -118.35503 | 702 ft | 7 kts | 332° |
| 2026-05-05 07:26 | 34.19814 | -118.35515 | 699 ft | 9 kts | 348° |
| 2026-05-05 07:26 | 34.19885 | -118.35537 | 691 ft | 12 kts | 345° |
| 2026-05-05 07:27 | 34.19969 | -118.35563 | 702 ft | 13 kts | 346° |
| 2026-05-05 07:27 | 34.20064 | -118.35591 | 714 ft | 15 kts | 346° |
| 2026-05-05 07:27 | 34.20172 | -118.35622 | 719 ft | 17 kts | 346° |
| 2026-05-05 07:27 | 34.20290 | -118.35653 | 722 ft | 18 kts | 349° |
| 2026-05-05 07:28 | 34.20419 | -118.35686 | 727 ft | 20 kts | 347° |
| 2026-05-05 07:28 | 34.20557 | -118.35727 | 732 ft | 21 kts | 346° |
| 2026-05-05 07:28 | 34.20706 | -118.35766 | 741 ft | 23 kts | 347° |
| 2026-05-05 07:28 | 34.20864 | -118.35808 | 752 ft | 24 kts | 347° |
| 2026-05-05 07:29 | 34.20978 | -118.35838 | 761 ft | 16 kts | 347° |
| 2026-05-05 07:29 | 34.21085 | -118.35867 | 769 ft | 7 kts | 347° |
| 2026-05-05 07:29 | 34.21141 | -118.35892 | 774 ft | 10 kts | 326° |
| 2026-05-05 07:29 | 34.21192 | -118.35952 | 778 ft | 7 kts | 307° |
| 2026-05-05 07:30 | 34.21219 | -118.36009 | 780 ft | 7 kts | 279° |
| 2026-05-05 07:30 | 34.21196 | -118.36036 | 779 ft | 0 kts | 168° |
| 2026-05-05 07:30 | 34.21189 | -118.36035 | 779 ft | 13 kts | 168° |
| 2026-05-05 07:31 | 34.20787 | -118.35924 | 750 ft | 105 kts | 167° |
| 2026-05-05 07:31 | 34.19800 | -118.35655 | 871 ft | 171 kts | 168° |
| 2026-05-05 07:31 | 34.18681 | -118.35391 | 2079 ft | 167 kts | 175° |
| 2026-05-05 07:31 | 34.17463 | -118.35725 | 2639 ft | 191 kts | 211° |
| 2026-05-05 07:32 | 34.16375 | -118.36741 | 3066 ft | 206 kts | 221° |
| 2026-05-05 07:32 | 34.15249 | -118.37916 | 3516 ft | 224 kts | 221° |
| 2026-05-05 07:32 | 34.14015 | -118.39208 | 3869 ft | 247 kts | 221° |
| 2026-05-05 07:32 | 34.12696 | -118.40599 | 4463 ft | 258 kts | 224° |
| 2026-05-05 07:33 | 34.11683 | -118.42379 | 5262 ft | 261 kts | 249° |
| 2026-05-05 07:33 | 34.11424 | -118.44568 | 6096 ft | 265 kts | 273° |
| 2026-05-05 07:33 | 34.11926 | -118.46644 | 6813 ft | 271 kts | 297° |
| 2026-05-05 07:33 | 34.13112 | -118.48519 | 7587 ft | 276 kts | 313° |
| 2026-05-05 07:34 | 34.14664 | -118.49904 | 8318 ft | 281 kts | 329° |
| 2026-05-05 07:34 | 34.16367 | -118.51006 | 9060 ft | 283 kts | 330° |
| 2026-05-05 07:34 | 34.18124 | -118.52116 | 9813 ft | 286 kts | 330° |
| 2026-05-05 07:34 | 34.19917 | -118.53249 | 10311 ft | 298 kts | 330° |
| 2026-05-05 07:35 | 34.21804 | -118.54456 | 10588 ft | 316 kts | 330° |
| 2026-05-05 07:35 | 34.23791 | -118.55744 | 10838 ft | 334 kts | 330° |
| 2026-05-05 07:35 | 34.25899 | -118.57115 | 11084 ft | 352 kts | 330° |
| 2026-05-05 07:35 | 34.28095 | -118.58539 | 11483 ft | 363 kts | 330° |
| 2026-05-05 07:36 | 34.30341 | -118.59987 | 12112 ft | 367 kts | 330° |
| 2026-05-05 07:36 | 34.32606 | -118.61453 | 12783 ft | 371 kts | 329° |
| 2026-05-05 07:36 | 34.34891 | -118.62937 | 13459 ft | 375 kts | 329° |
| 2026-05-05 07:36 | 34.37202 | -118.64423 | 14079 ft | 379 kts | 331° |
| 2026-05-05 07:37 | 34.39607 | -118.65778 | 14650 ft | 383 kts | 333° |
| 2026-05-05 07:37 | 34.42046 | -118.67112 | 15210 ft | 386 kts | 332° |
| 2026-05-05 07:37 | 34.44416 | -118.68652 | 15766 ft | 388 kts | 327° |
| 2026-05-05 07:37 | 34.46767 | -118.70307 | 16340 ft | 392 kts | 327° |
| 2026-05-05 07:38 | 34.49129 | -118.71984 | 16931 ft | 395 kts | 327° |
| 2026-05-05 07:38 | 34.51503 | -118.73668 | 17483 ft | 398 kts | 327° |
| 2026-05-05 07:38 | 34.53901 | -118.75379 | 18055 ft | 401 kts | 326° |
| 2026-05-05 07:38 | 34.56317 | -118.77105 | 18577 ft | 405 kts | 327° |
| 2026-05-05 07:39 | 34.58758 | -118.78841 | 19076 ft | 408 kts | 327° |
| 2026-05-05 07:39 | 34.61211 | -118.80584 | 19537 ft | 410 kts | 327° |
| 2026-05-05 07:39 | 34.63689 | -118.82348 | 20024 ft | 414 kts | 327° |
| 2026-05-05 07:39 | 34.66170 | -118.84111 | 20480 ft | 416 kts | 327° |
| 2026-05-05 07:40 | 34.68690 | -118.85892 | 20938 ft | 419 kts | 327° |
| 2026-05-05 07:40 | 34.71220 | -118.87681 | 21392 ft | 422 kts | 327° |
| 2026-05-05 07:40 | 34.73765 | -118.89482 | 21837 ft | 425 kts | 327° |
| 2026-05-05 07:40 | 34.76330 | -118.91302 | 22279 ft | 428 kts | 327° |
| 2026-05-05 07:41 | 34.78910 | -118.93143 | 22733 ft | 431 kts | 327° |
| 2026-05-05 07:41 | 34.81470 | -118.94960 | 23159 ft | 433 kts | 327° |
| 2026-05-05 07:41 | 34.84081 | -118.96815 | 23590 ft | 436 kts | 327° |
| 2026-05-05 07:41 | 34.86712 | -118.98689 | 23940 ft | 439 kts | 327° |
| 2026-05-05 07:42 | 34.89346 | -119.00570 | 24300 ft | 441 kts | 327° |
| 2026-05-05 07:42 | 34.92005 | -119.02469 | 24648 ft | 444 kts | 327° |
| 2026-05-05 07:42 | 34.94678 | -119.04377 | 25009 ft | 446 kts | 327° |
| 2026-05-05 07:42 | 34.97361 | -119.06297 | 25361 ft | 448 kts | 327° |
| 2026-05-05 07:43 | 35.00057 | -119.08230 | 25708 ft | 450 kts | 327° |
| 2026-05-05 07:43 | 35.02759 | -119.10169 | 26045 ft | 453 kts | 327° |
| 2026-05-05 07:43 | 35.05488 | -119.12128 | 26384 ft | 455 kts | 327° |
| 2026-05-05 07:43 | 35.08222 | -119.14092 | 26714 ft | 458 kts | 327° |
| 2026-05-05 07:44 | 35.10975 | -119.16068 | 27040 ft | 460 kts | 328° |
| 2026-05-05 07:44 | 35.13732 | -119.18050 | 27398 ft | 461 kts | 328° |
| 2026-05-05 07:44 | 35.16499 | -119.20042 | 27815 ft | 461 kts | 328° |
| 2026-05-05 07:44 | 35.19254 | -119.22027 | 28237 ft | 460 kts | 328° |
| 2026-05-05 07:45 | 35.22017 | -119.24018 | 28640 ft | 460 kts | 328° |
| 2026-05-05 07:45 | 35.24764 | -119.26000 | 29032 ft | 459 kts | 328° |
| 2026-05-05 07:45 | 35.27518 | -119.27987 | 29413 ft | 459 kts | 328° |
| 2026-05-05 07:45 | 35.30269 | -119.29973 | 29797 ft | 459 kts | 328° |
| 2026-05-05 07:46 | 35.33015 | -119.31958 | 30123 ft | 459 kts | 329° |
| 2026-05-05 07:46 | 35.35729 | -119.33926 | 30398 ft | 459 kts | 328° |
| 2026-05-05 07:46 | 35.38475 | -119.35921 | 30688 ft | 459 kts | 328° |
| 2026-05-05 07:46 | 35.41224 | -119.37912 | 30960 ft | 459 kts | 328° |
| 2026-05-05 07:47 | 35.43966 | -119.39899 | 31251 ft | 458 kts | 328° |
| 2026-05-05 07:47 | 35.46704 | -119.41886 | 31504 ft | 458 kts | 328° |
| 2026-05-05 07:47 | 35.49441 | -119.43877 | 31783 ft | 457 kts | 328° |
| 2026-05-05 07:47 | 35.52076 | -119.46070 | 32000 ft | 457 kts | 319° |
| 2026-05-05 07:48 | 35.54289 | -119.48856 | 32063 ft | 456 kts | 307° |
| 2026-05-05 07:48 | 35.55914 | -119.52187 | 32048 ft | 456 kts | 293° |
| 2026-05-05 07:48 | 35.56877 | -119.55884 | 32032 ft | 456 kts | 281° |
| 2026-05-05 07:48 | 35.57440 | -119.59715 | 32027 ft | 456 kts | 279° |
| 2026-05-05 07:49 | 35.58485 | -119.67414 | 32017 ft | 458 kts | 280° |
| 2026-05-05 07:49 | 35.59614 | -119.75122 | 32022 ft | 459 kts | 281° |
| 2026-05-05 07:50 | 35.60743 | -119.82783 | 32024 ft | 459 kts | 281° |
| 2026-05-05 07:50 | 35.61873 | -119.90488 | 32040 ft | 459 kts | 281° |
| 2026-05-05 07:51 | 35.63005 | -119.98213 | 32039 ft | 459 kts | 281° |
| 2026-05-05 07:51 | 35.64135 | -120.05952 | 32046 ft | 461 kts | 281° |
| 2026-05-05 07:52 | 35.65279 | -120.13706 | 32053 ft | 462 kts | 281° |
| 2026-05-05 07:52 | 35.66410 | -120.21498 | 32059 ft | 463 kts | 281° |
| 2026-05-05 07:53 | 35.67534 | -120.29326 | 32069 ft | 465 kts | 282° |
| 2026-05-05 07:53 | 35.69203 | -120.36970 | 32074 ft | 463 kts | 296° |
| 2026-05-05 07:54 | 35.71953 | -120.44126 | 32083 ft | 463 kts | 298° |
| 2026-05-05 07:54 | 35.74705 | -120.51245 | 32090 ft | 464 kts | 298° |
| 2026-05-05 07:55 | 35.77474 | -120.58490 | 32092 ft | 465 kts | 298° |
| 2026-05-05 07:55 | 35.80217 | -120.65707 | 32089 ft | 466 kts | 298° |
| 2026-05-05 07:56 | 35.82968 | -120.72952 | 32085 ft | 467 kts | 298° |
| 2026-05-05 07:56 | 35.85697 | -120.80152 | 32084 ft | 467 kts | 299° |
| 2026-05-05 07:57 | 35.88449 | -120.87426 | 32079 ft | 468 kts | 299° |
| 2026-05-05 07:57 | 35.91188 | -120.94699 | 32079 ft | 468 kts | 299° |
| 2026-05-05 07:58 | 35.93935 | -121.01993 | 32080 ft | 468 kts | 299° |
| 2026-05-05 07:58 | 35.96664 | -121.09283 | 32078 ft | 468 kts | 299° |
| 2026-05-05 07:59 | 35.99392 | -121.16566 | 32079 ft | 467 kts | 300° |
| 2026-05-05 07:59 | 36.02120 | -121.23855 | 32077 ft | 467 kts | 300° |
| 2026-05-05 08:00 | 36.04836 | -121.31132 | 32082 ft | 466 kts | 301° |
| 2026-05-05 08:00 | 36.08464 | -121.37525 | 32069 ft | 447 kts | 324° |
| 2026-05-05 08:01 | 36.13503 | -121.41799 | 32084 ft | 437 kts | 334° |
| 2026-05-05 08:01 | 36.18664 | -121.45786 | 32083 ft | 437 kts | 334° |
| 2026-05-05 08:02 | 36.23797 | -121.49749 | 32066 ft | 432 kts | 334° |
| 2026-05-05 08:02 | 36.26351 | -121.51731 | 31214 ft | 435 kts | 335° |
| 2026-05-05 08:02 | 36.28938 | -121.53765 | 29885 ft | 446 kts | 335° |
| 2026-05-05 08:03 | 36.31539 | -121.55821 | 28767 ft | 449 kts | 334° |
| 2026-05-05 08:03 | 36.34161 | -121.57878 | 28045 ft | 443 kts | 335° |
| 2026-05-05 08:03 | 36.36743 | -121.59894 | 27443 ft | 435 kts | 335° |
| 2026-05-05 08:03 | 36.39290 | -121.61887 | 26785 ft | 430 kts | 334° |
| 2026-05-05 08:04 | 36.41802 | -121.63855 | 26141 ft | 424 kts | 334° |
| 2026-05-05 08:04 | 36.44279 | -121.65804 | 25518 ft | 419 kts | 334° |
| 2026-05-05 08:04 | 36.46727 | -121.67734 | 24920 ft | 414 kts | 334° |
| 2026-05-05 08:04 | 36.49146 | -121.69638 | 24290 ft | 410 kts | 334° |
| 2026-05-05 08:05 | 36.51535 | -121.71522 | 23840 ft | 402 kts | 334° |
| 2026-05-05 08:05 | 36.53851 | -121.73356 | 23550 ft | 389 kts | 334° |
| 2026-05-05 08:05 | 36.56109 | -121.75144 | 23054 ft | 382 kts | 333° |
| 2026-05-05 08:05 | 36.58349 | -121.76912 | 22356 ft | 381 kts | 333° |
| 2026-05-05 08:06 | 36.60586 | -121.78678 | 21670 ft | 380 kts | 333° |
| 2026-05-05 08:06 | 36.62810 | -121.80438 | 21030 ft | 378 kts | 332° |
| 2026-05-05 08:06 | 36.65021 | -121.82191 | 20445 ft | 375 kts | 332° |
| 2026-05-05 08:06 | 36.67214 | -121.83930 | 19898 ft | 372 kts | 332° |
| 2026-05-05 08:07 | 36.69389 | -121.85657 | 19386 ft | 368 kts | 331° |
| 2026-05-05 08:07 | 36.71529 | -121.87354 | 18915 ft | 366 kts | 331° |
| 2026-05-05 08:07 | 36.73704 | -121.89004 | 18447 ft | 363 kts | 336° |
| 2026-05-05 08:07 | 36.76071 | -121.90044 | 17924 ft | 359 kts | 349° |
| 2026-05-05 08:08 | 36.78495 | -121.90722 | 17440 ft | 356 kts | 350° |
| 2026-05-05 08:08 | 36.80902 | -121.91363 | 16966 ft | 350 kts | 350° |
| 2026-05-05 08:08 | 36.83259 | -121.92000 | 16502 ft | 346 kts | 349° |
| 2026-05-05 08:08 | 36.85620 | -121.92647 | 16017 ft | 348 kts | 349° |
| 2026-05-05 08:09 | 36.87973 | -121.93299 | 15565 ft | 344 kts | 349° |
| 2026-05-05 08:09 | 36.90299 | -121.93948 | 15115 ft | 340 kts | 349° |
| 2026-05-05 08:09 | 36.92596 | -121.94589 | 14664 ft | 339 kts | 349° |
| 2026-05-05 08:09 | 36.94902 | -121.95249 | 14222 ft | 341 kts | 347° |
| 2026-05-05 08:10 | 36.97168 | -121.96077 | 13760 ft | 338 kts | 344° |
| 2026-05-05 08:10 | 36.99404 | -121.96954 | 13255 ft | 334 kts | 343° |
| 2026-05-05 08:10 | 37.01607 | -121.97818 | 12796 ft | 332 kts | 343° |
| 2026-05-05 08:10 | 37.03812 | -121.98682 | 12356 ft | 333 kts | 343° |
| 2026-05-05 08:11 | 37.06020 | -121.99546 | 11902 ft | 330 kts | 343° |
| 2026-05-05 08:11 | 37.08171 | -122.00386 | 11442 ft | 326 kts | 343° |
| 2026-05-05 08:11 | 37.10339 | -122.01233 | 11108 ft | 317 kts | 343° |
| 2026-05-05 08:11 | 37.12379 | -122.02032 | 10909 ft | 306 kts | 343° |
| 2026-05-05 08:12 | 37.14391 | -122.02820 | 10740 ft | 293 kts | 343° |
| 2026-05-05 08:12 | 37.16285 | -122.03565 | 10413 ft | 288 kts | 343° |
| 2026-05-05 08:12 | 37.18192 | -122.04310 | 9975 ft | 287 kts | 343° |
| 2026-05-05 08:12 | 37.20096 | -122.05054 | 9492 ft | 286 kts | 343° |
| 2026-05-05 08:13 | 37.21988 | -122.05795 | 9037 ft | 284 kts | 342° |
| 2026-05-05 08:13 | 37.23863 | -122.06530 | 8621 ft | 282 kts | 342° |
| 2026-05-05 08:13 | 37.25721 | -122.07258 | 8272 ft | 277 kts | 342° |
| 2026-05-05 08:13 | 37.27531 | -122.07966 | 8052 ft | 268 kts | 342° |
| 2026-05-05 08:14 | 37.28703 | -122.08426 | 7787 ft | 267 kts | 341° |
| 2026-05-05 08:14 | 37.30493 | -122.09131 | 7278 ft | 271 kts | 341° |
| 2026-05-05 08:14 | 37.32283 | -122.09838 | 6944 ft | 267 kts | 341° |
| 2026-05-05 08:14 | 37.34021 | -122.10526 | 6762 ft | 257 kts | 341° |
| 2026-05-05 08:15 | 37.35705 | -122.11193 | 6479 ft | 252 kts | 341° |
| 2026-05-05 08:15 | 37.37359 | -122.11848 | 6202 ft | 245 kts | 341° |
| 2026-05-05 08:15 | 37.38956 | -122.12449 | 6005 ft | 234 kts | 343° |
| 2026-05-05 08:15 | 37.40497 | -122.12975 | 5713 ft | 227 kts | 343° |
| 2026-05-05 08:16 | 37.42004 | -122.13484 | 5379 ft | 222 kts | 343° |
| 2026-05-05 08:16 | 37.43498 | -122.13993 | 4993 ft | 222 kts | 343° |
| 2026-05-05 08:16 | 37.44991 | -122.14501 | 4624 ft | 220 kts | 343° |
| 2026-05-05 08:16 | 37.46435 | -122.14979 | 4436 ft | 209 kts | 343° |
| 2026-05-05 08:17 | 37.47804 | -122.15426 | 4291 ft | 197 kts | 343° |
| 2026-05-05 08:17 | 37.49092 | -122.15851 | 4073 ft | 188 kts | 343° |
| 2026-05-05 08:17 | 37.50349 | -122.16269 | 3747 ft | 186 kts | 343° |
| 2026-05-05 08:17 | 37.51596 | -122.16680 | 3418 ft | 185 kts | 343° |
| 2026-05-05 08:18 | 37.52830 | -122.17098 | 3081 ft | 183 kts | 340° |
| 2026-05-05 08:18 | 37.53863 | -122.17936 | 2700 ft | 178 kts | 308° |
| 2026-05-05 08:18 | 37.54497 | -122.19275 | 2518 ft | 178 kts | 294° |
| 2026-05-05 08:18 | 37.55050 | -122.20664 | 2495 ft | 178 kts | 297° |
| 2026-05-05 08:19 | 37.55622 | -122.22049 | 2464 ft | 178 kts | 297° |
| 2026-05-05 08:19 | 37.56198 | -122.23426 | 2287 ft | 177 kts | 297° |
| 2026-05-05 08:19 | 37.56767 | -122.24786 | 2084 ft | 171 kts | 297° |
| 2026-05-05 08:19 | 37.57315 | -122.26092 | 1857 ft | 167 kts | 298° |
| 2026-05-05 08:20 | 37.57850 | -122.27368 | 1609 ft | 159 kts | 298° |
| 2026-05-05 08:20 | 37.58328 | -122.28510 | 1383 ft | 139 kts | 298° |
| 2026-05-05 08:20 | 37.58780 | -122.29590 | 1174 ft | 140 kts | 297° |
| 2026-05-05 08:20 | 37.59233 | -122.30671 | 978 ft | 139 kts | 298° |
| 2026-05-05 08:21 | 37.59685 | -122.31750 | 782 ft | 139 kts | 297° |
| 2026-05-05 08:21 | 37.60136 | -122.32824 | 593 ft | 139 kts | 297° |
| 2026-05-05 08:21 | 37.60589 | -122.33906 | 403 ft | 139 kts | 297° |
| 2026-05-05 08:21 | 37.61039 | -122.34981 | 219 ft | 138 kts | 297° |
| 2026-05-05 08:22 | 37.61487 | -122.36050 | 38 ft | 137 kts | 296° |
| 2026-05-05 08:22 | 37.61866 | -122.36961 | 27 ft | 89 kts | 298° |
| 2026-05-05 08:22 | 37.62101 | -122.37513 | 27 ft | 58 kts | 298° |
| 2026-05-05 08:22 | 37.62230 | -122.37820 | 27 ft | 26 kts | 287° |
| 2026-05-05 08:23 | 37.62231 | -122.38000 | 27 ft | 19 kts | 265° |
| 2026-05-05 08:23 | 37.62223 | -122.38133 | 27 ft | 13 kts | 263° |
| 2026-05-05 08:23 | 37.62162 | -122.38214 | 27 ft | 14 kts | 207° |
| 2026-05-05 08:23 | 37.62069 | -122.38273 | 27 ft | 16 kts | 207° |
| 2026-05-05 08:24 | 37.62027 | -122.38309 | 27 ft | 6 kts | 251° |
| 2026-05-05 08:24 | 37.62034 | -122.38370 | 27 ft | 8 kts | 295° |
| 2026-05-05 08:24 | 37.62062 | -122.38437 | 27 ft | 9 kts | 296° |
| 2026-05-05 08:24 | 37.62054 | -122.38501 | 27 ft | 9 kts | 219° |
| 2026-05-05 08:25 | 37.61995 | -122.38543 | 27 ft | 10 kts | 208° |
| 2026-05-05 08:25 | 37.61961 | -122.38566 | 27 ft | 4 kts | 208° |
| 2026-05-05 08:25 | 37.61940 | -122.38589 | 27 ft | 2 kts | 219° |
| 2026-05-05 08:25 | 37.61927 | -122.38604 | 27 ft | 3 kts | 222° |
| 2026-05-05 08:26 | 37.61915 | -122.38618 | 27 ft | 0 kts | 224° |
| 2026-05-05 08:26 | 37.61909 | -122.38625 | 27 ft | 2 kts | 224° |
| 2026-05-05 08:26 | 37.61907 | -122.38628 | 27 ft | 0 kts | 224° |